Aeroporto :
LOGIN :

Iscrizione | Disclaimer

   EN    FR    IT 

 










Sommario :    VFR   VFR Marginale   IFR   IFR Intensivo   IFR Molto Intensivo
Visibilità : 
Base nubi : 
>= 8 km
>= 3000ft
5 / 8 km
1000 / 3000 ft
1500m / 5 km
500 / 1000 ft
800 / 1500m
200 / 500 ft
< 800m
< 200 ft
Simboli :   Temporali  Nebbia  Neve Forte  Precipitazioni Forti  Vento > 20 kt
SIGMETs :   Varie  Temporali  Ghiacco  Turbolenza  Onda orograficha  Ceneri Vulcaniche






- Altitudine del aeroporto : 326 ft
- Codice IATA : LCG


LECO - A Coruna

ULTIMO METAR :
  • 250030Z AUTO 19008KT 170V240 9999 -RA OVC033 11/08 Q1024

METARs OBSOLETI :
  • 250000Z 20009KT 170V230 9999 BKN034 11/08 Q1024 NOSIG
  • 242330Z 20008KT 9999 BKN034 11/08 Q1024 NOSIG
  • 242300Z 19008KT 9999 BKN034 11/08 Q1024 NOSIG
  • 242230Z 17005KT 9999 BKN034 11/07 Q1025 NOSIG
  • 242200Z 18004KT 9999 BKN026 11/07 Q1025 NOSIG

TAF TAF LECO
Valido dal 24 a 21 ore il 25 a 21 ore UTC


242000Z 2421/2521 23009KT 9999 SCT015 BKN020 TX13/2516Z TN08/2521Z
BECMG 2505/2507 33010KT
PROB40
TEMPO 2505/2509 33015G25KT
TEMPO 2500/2509 3000 RA BKN010 BKN014
PROB40
TEMPO 2506/2521 SHRA SCT025TCU



MetMap, La meteo Aeronautica in un colpo d'occhio ! - Copyright ORBIFLY Dicembre 2007 - Disclaimer

ORBIFLY MET'MAP TEAM :

Programmazione e sviluppo : Alexandra Zaïnal
Concezione : Baudouin d'Aumeries
Aiuto per la programmazione : Marc-Olivier Méhu
Supporto tecnico e logistico : Manuel Goepfert
Aiuto per la traduzione : Arnaldo La Scala

Contatto : metmap@orbifly.com




FONTI E CREDITI :

   NOAA